sensor_id;sensor_type;location;lat;lon;timestamp;P1;durP1;ratioP1;P2;durP2;ratioP2
10410;SDS011;5251;52.112;8.606;2023-07-02T00:02:20;4.90;;;3.85;;
10410;SDS011;5251;52.112;8.606;2023-07-02T00:04:46;4.10;;;3.53;;
10410;SDS011;5251;52.112;8.606;2023-07-02T00:07:12;4.40;;;4.00;;
10410;SDS011;5251;52.112;8.606;2023-07-02T00:09:40;4.20;;;3.80;;
10410;SDS011;5251;52.112;8.606;2023-07-02T00:12:06;5.45;;;3.58;;
10410;SDS011;5251;52.112;8.606;2023-07-02T00:14:32;6.72;;;4.25;;
10410;SDS011;5251;52.112;8.606;2023-07-02T00:16:57;5.53;;;3.95;;
10410;SDS011;5251;52.112;8.606;2023-07-02T00:19:23;7.90;;;4.13;;
10410;SDS011;5251;52.112;8.606;2023-07-02T00:21:49;5.55;;;4.43;;
10410;SDS011;5251;52.112;8.606;2023-07-02T00:24:14;7.13;;;4.03;;
10410;SDS011;5251;52.112;8.606;2023-07-02T00:26:40;6.60;;;4.10;;
10410;SDS011;5251;52.112;8.606;2023-07-02T00:29:06;6.85;;;3.92;;
10410;SDS011;5251;52.112;8.606;2023-07-02T00:31:33;4.78;;;4.30;;
10410;SDS011;5251;52.112;8.606;2023-07-02T00:33:58;7.18;;;4.03;;
10410;SDS011;5251;52.112;8.606;2023-07-02T00:36:26;4.88;;;4.38;;
10410;SDS011;5251;52.112;8.606;2023-07-02T00:38:51;5.60;;;5.00;;
10410;SDS011;5251;52.112;8.606;2023-07-02T00:41:17;9.50;;;5.43;;
10410;SDS011;5251;52.112;8.606;2023-07-02T00:43:43;5.93;;;5.40;;
10410;SDS011;5251;52.112;8.606;2023-07-02T00:46:09;6.82;;;5.85;;
10410;SDS011;5251;52.112;8.606;2023-07-02T00:48:35;7.50;;;6.05;;
10410;SDS011;5251;52.112;8.606;2023-07-02T00:51:02;5.80;;;5.30;;
10410;SDS011;5251;52.112;8.606;2023-07-02T00:53:28;6.60;;;5.97;;
10410;SDS011;5251;52.112;8.606;2023-07-02T00:55:54;7.22;;;6.15;;
10410;SDS011;5251;52.112;8.606;2023-07-02T00:58:19;6.55;;;5.80;;
10410;SDS011;5251;52.112;8.606;2023-07-02T01:00:46;8.07;;;5.88;;
10410;SDS011;5251;52.112;8.606;2023-07-02T01:03:12;7.18;;;6.13;;
10410;SDS011;5251;52.112;8.606;2023-07-02T01:05:37;7.72;;;6.30;;
10410;SDS011;5251;52.112;8.606;2023-07-02T01:08:03;7.32;;;5.78;;
10410;SDS011;5251;52.112;8.606;2023-07-02T01:10:30;6.85;;;6.13;;
10410;SDS011;5251;52.112;8.606;2023-07-02T01:12:57;7.03;;;6.28;;
10410;SDS011;5251;52.112;8.606;2023-07-02T01:15:26;6.65;;;5.95;;
10410;SDS011;5251;52.112;8.606;2023-07-02T01:17:52;8.23;;;5.78;;
10410;SDS011;5251;52.112;8.606;2023-07-02T01:20:18;6.50;;;5.90;;
10410;SDS011;5251;52.112;8.606;2023-07-02T01:22:45;6.45;;;5.40;;
10410;SDS011;5251;52.112;8.606;2023-07-02T01:25:14;6.88;;;5.90;;
10410;SDS011;5251;52.112;8.606;2023-07-02T01:27:40;5.82;;;5.28;;
10410;SDS011;5251;52.112;8.606;2023-07-02T01:30:07;5.70;;;5.20;;
10410;SDS011;5251;52.112;8.606;2023-07-02T01:32:34;5.80;;;5.20;;
10410;SDS011;5251;52.112;8.606;2023-07-02T01:34:59;7.47;;;5.20;;
10410;SDS011;5251;52.112;8.606;2023-07-02T01:37:25;5.82;;;5.05;;
10410;SDS011;5251;52.112;8.606;2023-07-02T01:39:51;5.78;;;5.22;;
10410;SDS011;5251;52.112;8.606;2023-07-02T01:42:18;7.50;;;5.05;;
10410;SDS011;5251;52.112;8.606;2023-07-02T01:44:44;5.80;;;5.15;;
10410;SDS011;5251;52.112;8.606;2023-07-02T01:47:11;5.80;;;5.20;;
10410;SDS011;5251;52.112;8.606;2023-07-02T01:49:37;5.65;;;4.72;;
10410;SDS011;5251;52.112;8.606;2023-07-02T01:52:03;5.18;;;4.50;;
10410;SDS011;5251;52.112;8.606;2023-07-02T01:54:30;4.97;;;4.57;;
10410;SDS011;5251;52.112;8.606;2023-07-02T01:56:59;5.55;;;4.97;;
10410;SDS011;5251;52.112;8.606;2023-07-02T01:59:24;7.45;;;5.38;;
10410;SDS011;5251;52.112;8.606;2023-07-02T02:01:50;5.85;;;5.05;;
10410;SDS011;5251;52.112;8.606;2023-07-02T02:04:17;5.78;;;5.25;;
10410;SDS011;5251;52.112;8.606;2023-07-02T02:06:42;7.85;;;5.95;;
10410;SDS011;5251;52.112;8.606;2023-07-02T02:09:08;6.15;;;5.47;;
10410;SDS011;5251;52.112;8.606;2023-07-02T02:11:34;7.15;;;6.18;;
10410;SDS011;5251;52.112;8.606;2023-07-02T02:14:02;6.68;;;5.88;;
10410;SDS011;5251;52.112;8.606;2023-07-02T02:16:28;7.55;;;6.70;;
10410;SDS011;5251;52.112;8.606;2023-07-02T02:18:54;8.52;;;6.43;;
10410;SDS011;5251;52.112;8.606;2023-07-02T02:21:19;6.97;;;6.38;;
10410;SDS011;5251;52.112;8.606;2023-07-02T02:23:45;7.57;;;6.90;;
10410;SDS011;5251;52.112;8.606;2023-07-02T02:26:11;7.75;;;6.95;;
10410;SDS011;5251;52.112;8.606;2023-07-02T02:28:37;7.32;;;6.57;;
10410;SDS011;5251;52.112;8.606;2023-07-02T02:31:03;7.78;;;7.18;;
10410;SDS011;5251;52.112;8.606;2023-07-02T02:33:28;7.85;;;7.15;;
10410;SDS011;5251;52.112;8.606;2023-07-02T02:35:54;9.25;;;7.25;;
10410;SDS011;5251;52.112;8.606;2023-07-02T02:38:20;10.25;;;8.02;;
10410;SDS011;5251;52.112;8.606;2023-07-02T02:40:45;8.70;;;7.95;;
10410;SDS011;5251;52.112;8.606;2023-07-02T02:43:11;9.15;;;8.35;;
10410;SDS011;5251;52.112;8.606;2023-07-02T02:45:37;10.88;;;9.63;;
10410;SDS011;5251;52.112;8.606;2023-07-02T02:48:03;12.27;;;9.75;;
10410;SDS011;5251;52.112;8.606;2023-07-02T02:50:29;11.65;;;9.82;;
10410;SDS011;5251;52.112;8.606;2023-07-02T02:52:54;12.73;;;10.00;;
10410;SDS011;5251;52.112;8.606;2023-07-02T02:55:20;11.40;;;10.20;;
10410;SDS011;5251;52.112;8.606;2023-07-02T02:57:45;11.85;;;10.65;;
10410;SDS011;5251;52.112;8.606;2023-07-02T03:00:11;11.82;;;10.73;;
10410;SDS011;5251;52.112;8.606;2023-07-02T03:02:37;12.55;;;11.13;;
10410;SDS011;5251;52.112;8.606;2023-07-02T03:05:04;13.50;;;12.18;;
10410;SDS011;5251;52.112;8.606;2023-07-02T03:07:31;12.57;;;11.38;;
10410;SDS011;5251;52.112;8.606;2023-07-02T03:09:57;13.23;;;11.88;;
10410;SDS011;5251;52.112;8.606;2023-07-02T03:12:25;13.30;;;12.05;;
10410;SDS011;5251;52.112;8.606;2023-07-02T03:14:50;12.32;;;11.13;;
10410;SDS011;5251;52.112;8.606;2023-07-02T03:17:19;12.35;;;11.05;;
10410;SDS011;5251;52.112;8.606;2023-07-02T03:19:45;11.70;;;10.60;;
10410;SDS011;5251;52.112;8.606;2023-07-02T03:22:11;13.00;;;11.32;;
10410;SDS011;5251;52.112;8.606;2023-07-02T03:24:37;12.80;;;11.15;;
10410;SDS011;5251;52.112;8.606;2023-07-02T03:27:03;13.05;;;11.13;;
10410;SDS011;5251;52.112;8.606;2023-07-02T03:29:29;16.85;;;11.57;;
10410;SDS011;5251;52.112;8.606;2023-07-02T03:31:54;12.00;;;10.80;;
10410;SDS011;5251;52.112;8.606;2023-07-02T03:34:20;13.35;;;11.10;;
10410;SDS011;5251;52.112;8.606;2023-07-02T03:36:47;12.05;;;10.85;;
10410;SDS011;5251;52.112;8.606;2023-07-02T03:39:13;11.85;;;10.60;;
10410;SDS011;5251;52.112;8.606;2023-07-02T03:41:38;11.85;;;10.63;;
10410;SDS011;5251;52.112;8.606;2023-07-02T03:44:04;12.77;;;11.45;;
10410;SDS011;5251;52.112;8.606;2023-07-02T03:46:30;13.10;;;11.73;;
10410;SDS011;5251;52.112;8.606;2023-07-02T03:48:58;12.40;;;11.02;;
10410;SDS011;5251;52.112;8.606;2023-07-02T03:51:24;13.00;;;11.70;;
10410;SDS011;5251;52.112;8.606;2023-07-02T03:53:49;12.50;;;11.23;;
10410;SDS011;5251;52.112;8.606;2023-07-02T03:56:15;14.23;;;9.48;;
10410;SDS011;5251;52.112;8.606;2023-07-02T03:58:41;12.95;;;7.43;;
10410;SDS011;5251;52.112;8.606;2023-07-02T04:01:06;9.98;;;6.45;;
10410;SDS011;5251;52.112;8.606;2023-07-02T04:03:32;10.25;;;6.50;;
10410;SDS011;5251;52.112;8.606;2023-07-02T04:05:58;8.27;;;5.82;;
10410;SDS011;5251;52.112;8.606;2023-07-02T04:08:23;9.30;;;6.15;;
10410;SDS011;5251;52.112;8.606;2023-07-02T04:10:53;9.13;;;5.82;;
10410;SDS011;5251;52.112;8.606;2023-07-02T04:13:19;9.40;;;5.90;;
10410;SDS011;5251;52.112;8.606;2023-07-02T04:15:45;9.48;;;5.68;;
10410;SDS011;5251;52.112;8.606;2023-07-02T04:18:10;8.95;;;5.10;;
10410;SDS011;5251;52.112;8.606;2023-07-02T04:20:36;10.38;;;6.45;;
10410;SDS011;5251;52.112;8.606;2023-07-02T04:23:03;13.70;;;6.07;;
10410;SDS011;5251;52.112;8.606;2023-07-02T04:25:29;9.07;;;5.55;;
10410;SDS011;5251;52.112;8.606;2023-07-02T04:27:55;7.25;;;5.43;;
10410;SDS011;5251;52.112;8.606;2023-07-02T04:30:22;8.18;;;5.40;;
10410;SDS011;5251;52.112;8.606;2023-07-02T04:32:47;9.07;;;5.75;;
10410;SDS011;5251;52.112;8.606;2023-07-02T04:35:13;9.75;;;5.65;;
10410;SDS011;5251;52.112;8.606;2023-07-02T04:37:39;9.48;;;5.93;;
10410;SDS011;5251;52.112;8.606;2023-07-02T04:40:05;7.90;;;5.80;;
10410;SDS011;5251;52.112;8.606;2023-07-02T04:42:37;8.77;;;6.07;;
10410;SDS011;5251;52.112;8.606;2023-07-02T04:45:07;8.52;;;5.97;;
10410;SDS011;5251;52.112;8.606;2023-07-02T04:47:33;9.38;;;6.10;;
10410;SDS011;5251;52.112;8.606;2023-07-02T04:50:00;10.20;;;6.18;;
10410;SDS011;5251;52.112;8.606;2023-07-02T04:52:26;7.32;;;5.63;;
10410;SDS011;5251;52.112;8.606;2023-07-02T04:54:52;8.55;;;5.78;;
10410;SDS011;5251;52.112;8.606;2023-07-02T04:57:17;8.20;;;5.70;;
10410;SDS011;5251;52.112;8.606;2023-07-02T04:59:43;7.78;;;5.95;;
10410;SDS011;5251;52.112;8.606;2023-07-02T05:02:09;9.23;;;5.80;;
10410;SDS011;5251;52.112;8.606;2023-07-02T05:04:35;9.60;;;5.88;;
10410;SDS011;5251;52.112;8.606;2023-07-02T05:07:02;6.78;;;5.22;;
10410;SDS011;5251;52.112;8.606;2023-07-02T05:09:29;8.30;;;5.72;;
10410;SDS011;5251;52.112;8.606;2023-07-02T05:11:55;10.65;;;6.53;;
10410;SDS011;5251;52.112;8.606;2023-07-02T05:14:21;10.80;;;5.88;;
10410;SDS011;5251;52.112;8.606;2023-07-02T05:16:47;11.05;;;6.50;;
10410;SDS011;5251;52.112;8.606;2023-07-02T05:19:13;7.00;;;5.70;;
10410;SDS011;5251;52.112;8.606;2023-07-02T05:21:39;8.10;;;5.82;;
10410;SDS011;5251;52.112;8.606;2023-07-02T05:24:04;10.68;;;6.03;;
10410;SDS011;5251;52.112;8.606;2023-07-02T05:26:30;9.55;;;5.85;;
10410;SDS011;5251;52.112;8.606;2023-07-02T05:28:56;7.85;;;5.75;;
10410;SDS011;5251;52.112;8.606;2023-07-02T05:31:21;9.23;;;6.20;;
10410;SDS011;5251;52.112;8.606;2023-07-02T05:33:47;10.85;;;6.47;;
10410;SDS011;5251;52.112;8.606;2023-07-02T05:36:13;9.32;;;6.00;;
10410;SDS011;5251;52.112;8.606;2023-07-02T05:38:38;8.65;;;5.93;;
10410;SDS011;5251;52.112;8.606;2023-07-02T05:41:04;10.40;;;6.20;;
10410;SDS011;5251;52.112;8.606;2023-07-02T05:43:30;12.00;;;6.20;;
10410;SDS011;5251;52.112;8.606;2023-07-02T05:45:57;12.02;;;5.82;;
10410;SDS011;5251;52.112;8.606;2023-07-02T05:48:25;12.98;;;5.78;;
10410;SDS011;5251;52.112;8.606;2023-07-02T05:50:51;9.45;;;5.75;;
10410;SDS011;5251;52.112;8.606;2023-07-02T05:53:17;14.18;;;6.55;;
10410;SDS011;5251;52.112;8.606;2023-07-02T05:55:42;13.55;;;6.88;;
10410;SDS011;5251;52.112;8.606;2023-07-02T05:58:08;10.10;;;6.35;;
10410;SDS011;5251;52.112;8.606;2023-07-02T06:00:34;10.05;;;6.30;;
10410;SDS011;5251;52.112;8.606;2023-07-02T06:03:00;10.75;;;5.88;;
10410;SDS011;5251;52.112;8.606;2023-07-02T06:05:25;14.52;;;6.60;;
10410;SDS011;5251;52.112;8.606;2023-07-02T06:07:51;11.05;;;6.63;;
10410;SDS011;5251;52.112;8.606;2023-07-02T06:10:17;10.10;;;6.72;;
10410;SDS011;5251;52.112;8.606;2023-07-02T06:12:43;13.20;;;7.07;;
10410;SDS011;5251;52.112;8.606;2023-07-02T06:15:09;12.82;;;7.80;;
10410;SDS011;5251;52.112;8.606;2023-07-02T06:17:35;12.20;;;8.18;;
10410;SDS011;5251;52.112;8.606;2023-07-02T06:20:02;10.40;;;8.88;;
10410;SDS011;5251;52.112;8.606;2023-07-02T06:22:29;14.90;;;8.52;;
10410;SDS011;5251;52.112;8.606;2023-07-02T06:24:55;11.07;;;8.68;;
10410;SDS011;5251;52.112;8.606;2023-07-02T06:27:21;11.90;;;8.98;;
10410;SDS011;5251;52.112;8.606;2023-07-02T06:29:46;15.30;;;9.95;;
10410;SDS011;5251;52.112;8.606;2023-07-02T06:32:12;13.48;;;10.20;;
10410;SDS011;5251;52.112;8.606;2023-07-02T06:34:38;21.15;;;10.85;;
10410;SDS011;5251;52.112;8.606;2023-07-02T06:37:03;11.75;;;10.40;;
10410;SDS011;5251;52.112;8.606;2023-07-02T06:39:29;13.60;;;10.73;;
10410;SDS011;5251;52.112;8.606;2023-07-02T06:41:55;13.80;;;11.65;;
10410;SDS011;5251;52.112;8.606;2023-07-02T06:44:21;12.48;;;10.98;;
10410;SDS011;5251;52.112;8.606;2023-07-02T06:46:46;12.30;;;11.00;;
10410;SDS011;5251;52.112;8.606;2023-07-02T06:49:12;13.10;;;11.63;;
10410;SDS011;5251;52.112;8.606;2023-07-02T06:51:37;12.60;;;11.27;;
10410;SDS011;5251;52.112;8.606;2023-07-02T06:54:03;13.10;;;9.57;;
10410;SDS011;5251;52.112;8.606;2023-07-02T06:56:28;12.63;;;10.73;;
10410;SDS011;5251;52.112;8.606;2023-07-02T06:58:54;12.63;;;11.25;;
10410;SDS011;5251;52.112;8.606;2023-07-02T07:01:20;12.00;;;10.77;;
10410;SDS011;5251;52.112;8.606;2023-07-02T07:03:45;14.55;;;11.45;;
10410;SDS011;5251;52.112;8.606;2023-07-02T07:06:11;13.35;;;11.90;;
10410;SDS011;5251;52.112;8.606;2023-07-02T07:08:37;13.18;;;11.90;;
10410;SDS011;5251;52.112;8.606;2023-07-02T07:11:06;13.32;;;11.98;;
10410;SDS011;5251;52.112;8.606;2023-07-02T07:13:32;12.73;;;11.27;;
10410;SDS011;5251;52.112;8.606;2023-07-02T07:15:57;13.40;;;12.05;;
10410;SDS011;5251;52.112;8.606;2023-07-02T07:18:23;15.45;;;12.38;;
10410;SDS011;5251;52.112;8.606;2023-07-02T07:20:49;15.10;;;11.38;;
10410;SDS011;5251;52.112;8.606;2023-07-02T07:23:15;13.13;;;10.68;;
10410;SDS011;5251;52.112;8.606;2023-07-02T07:25:41;13.05;;;11.05;;
10410;SDS011;5251;52.112;8.606;2023-07-02T07:28:06;13.82;;;10.05;;
10410;SDS011;5251;52.112;8.606;2023-07-02T07:30:32;12.25;;;8.35;;
10410;SDS011;5251;52.112;8.606;2023-07-02T07:32:58;12.68;;;9.30;;
10410;SDS011;5251;52.112;8.606;2023-07-02T07:35:23;12.75;;;8.30;;
10410;SDS011;5251;52.112;8.606;2023-07-02T07:37:50;11.27;;;7.85;;
10410;SDS011;5251;52.112;8.606;2023-07-02T07:40:16;12.25;;;8.45;;
10410;SDS011;5251;52.112;8.606;2023-07-02T07:42:41;10.65;;;7.80;;
10410;SDS011;5251;52.112;8.606;2023-07-02T07:45:08;13.43;;;9.07;;
10410;SDS011;5251;52.112;8.606;2023-07-02T07:47:35;11.57;;;8.23;;
10410;SDS011;5251;52.112;8.606;2023-07-02T07:50:00;12.50;;;7.70;;
10410;SDS011;5251;52.112;8.606;2023-07-02T07:52:26;12.30;;;7.40;;
10410;SDS011;5251;52.112;8.606;2023-07-02T07:54:52;9.52;;;7.22;;
10410;SDS011;5251;52.112;8.606;2023-07-02T07:57:18;10.43;;;7.50;;
10410;SDS011;5251;52.112;8.606;2023-07-02T07:59:43;13.02;;;7.72;;
10410;SDS011;5251;52.112;8.606;2023-07-02T08:02:09;12.68;;;7.55;;
10410;SDS011;5251;52.112;8.606;2023-07-02T08:04:35;10.27;;;7.22;;
10410;SDS011;5251;52.112;8.606;2023-07-02T08:07:00;10.90;;;6.78;;
10410;SDS011;5251;52.112;8.606;2023-07-02T08:09:29;9.30;;;6.78;;
10410;SDS011;5251;52.112;8.606;2023-07-02T08:11:54;11.32;;;7.20;;
10410;SDS011;5251;52.112;8.606;2023-07-02T08:14:20;10.48;;;6.90;;
10410;SDS011;5251;52.112;8.606;2023-07-02T08:16:46;9.93;;;6.80;;
10410;SDS011;5251;52.112;8.606;2023-07-02T08:19:11;10.52;;;7.10;;
10410;SDS011;5251;52.112;8.606;2023-07-02T08:21:37;9.95;;;6.05;;
10410;SDS011;5251;52.112;8.606;2023-07-02T08:24:03;8.43;;;6.90;;
10410;SDS011;5251;52.112;8.606;2023-07-02T08:26:29;8.98;;;6.38;;
10410;SDS011;5251;52.112;8.606;2023-07-02T08:28:54;11.13;;;7.40;;
10410;SDS011;5251;52.112;8.606;2023-07-02T08:31:20;9.55;;;7.38;;
10410;SDS011;5251;52.112;8.606;2023-07-02T08:33:46;11.43;;;7.50;;
10410;SDS011;5251;52.112;8.606;2023-07-02T08:36:11;13.07;;;7.60;;
10410;SDS011;5251;52.112;8.606;2023-07-02T08:38:38;11.48;;;7.63;;
10410;SDS011;5251;52.112;8.606;2023-07-02T08:41:06;11.27;;;8.05;;
10410;SDS011;5251;52.112;8.606;2023-07-02T08:43:32;9.65;;;7.47;;
10410;SDS011;5251;52.112;8.606;2023-07-02T08:46:00;12.93;;;7.38;;
10410;SDS011;5251;52.112;8.606;2023-07-02T08:48:26;9.50;;;6.93;;
10410;SDS011;5251;52.112;8.606;2023-07-02T08:50:54;9.05;;;7.55;;
10410;SDS011;5251;52.112;8.606;2023-07-02T08:53:20;12.23;;;7.72;;
10410;SDS011;5251;52.112;8.606;2023-07-02T08:55:50;10.15;;;7.55;;
10410;SDS011;5251;52.112;8.606;2023-07-02T08:58:15;9.68;;;7.05;;
10410;SDS011;5251;52.112;8.606;2023-07-02T09:01:03;10.43;;;7.18;;
10410;SDS011;5251;52.112;8.606;2023-07-02T09:03:45;12.27;;;7.30;;
10410;SDS011;5251;52.112;8.606;2023-07-02T09:06:11;11.10;;;6.82;;
10410;SDS011;5251;52.112;8.606;2023-07-02T09:08:37;9.68;;;6.88;;
10410;SDS011;5251;52.112;8.606;2023-07-02T09:11:07;10.10;;;7.15;;
10410;SDS011;5251;52.112;8.606;2023-07-02T09:16:28;11.23;;;6.40;;
10410;SDS011;5251;52.112;8.606;2023-07-02T09:18:59;9.55;;;7.53;;
10410;SDS011;5251;52.112;8.606;2023-07-02T09:21:26;9.07;;;7.53;;
10410;SDS011;5251;52.112;8.606;2023-07-02T09:23:53;10.25;;;7.32;;
10410;SDS011;5251;52.112;8.606;2023-07-02T09:26:22;10.68;;;7.78;;
10410;SDS011;5251;52.112;8.606;2023-07-02T09:28:48;8.63;;;7.63;;
10410;SDS011;5251;52.112;8.606;2023-07-02T09:31:13;7.72;;;6.97;;
10410;SDS011;5251;52.112;8.606;2023-07-02T09:33:39;8.82;;;7.90;;
10410;SDS011;5251;52.112;8.606;2023-07-02T09:36:05;10.55;;;7.55;;
10410;SDS011;5251;52.112;8.606;2023-07-02T09:38:30;10.35;;;7.53;;
10410;SDS011;5251;52.112;8.606;2023-07-02T09:40:56;7.93;;;6.85;;
10410;SDS011;5251;52.112;8.606;2023-07-02T09:43:22;8.20;;;6.57;;
10410;SDS011;5251;52.112;8.606;2023-07-02T09:45:52;8.30;;;6.53;;
10410;SDS011;5251;52.112;8.606;2023-07-02T09:48:22;8.38;;;6.38;;
10410;SDS011;5251;52.112;8.606;2023-07-02T09:50:53;8.82;;;7.25;;
10410;SDS011;5251;52.112;8.606;2023-07-02T09:53:21;8.50;;;6.28;;
10410;SDS011;5251;52.112;8.606;2023-07-02T09:55:47;8.90;;;6.20;;
10410;SDS011;5251;52.112;8.606;2023-07-02T09:58:13;10.45;;;6.18;;
10410;SDS011;5251;52.112;8.606;2023-07-02T10:00:39;9.75;;;5.97;;
10410;SDS011;5251;52.112;8.606;2023-07-02T10:03:05;9.40;;;6.15;;
10410;SDS011;5251;52.112;8.606;2023-07-02T10:05:32;10.77;;;7.68;;
10410;SDS011;5251;52.112;8.606;2023-07-02T10:07:59;10.00;;;6.57;;
10410;SDS011;5251;52.112;8.606;2023-07-02T10:10:41;8.65;;;6.82;;
10410;SDS011;5251;52.112;8.606;2023-07-02T10:13:07;7.63;;;6.80;;
10410;SDS011;5251;52.112;8.606;2023-07-02T10:15:33;9.75;;;6.72;;
10410;SDS011;5251;52.112;8.606;2023-07-02T10:18:02;9.63;;;6.32;;
10410;SDS011;5251;52.112;8.606;2023-07-02T10:20:35;9.35;;;6.38;;
10410;SDS011;5251;52.112;8.606;2023-07-02T10:23:06;9.88;;;6.70;;
10410;SDS011;5251;52.112;8.606;2023-07-02T10:25:33;8.30;;;6.50;;
10410;SDS011;5251;52.112;8.606;2023-07-02T10:28:13;10.13;;;6.53;;
10410;SDS011;5251;52.112;8.606;2023-07-02T10:30:38;8.82;;;6.22;;
10410;SDS011;5251;52.112;8.606;2023-07-02T10:33:08;11.43;;;6.68;;
10410;SDS011;5251;52.112;8.606;2023-07-02T10:35:34;8.63;;;6.07;;
10410;SDS011;5251;52.112;8.606;2023-07-02T10:38:00;7.07;;;5.55;;
10410;SDS011;5251;52.112;8.606;2023-07-02T10:40:26;9.00;;;6.53;;
10410;SDS011;5251;52.112;8.606;2023-07-02T10:42:52;8.95;;;6.53;;
10410;SDS011;5251;52.112;8.606;2023-07-02T10:45:18;8.52;;;6.88;;
10410;SDS011;5251;52.112;8.606;2023-07-02T10:47:45;9.13;;;7.28;;
10410;SDS011;5251;52.112;8.606;2023-07-02T10:52:43;8.23;;;6.93;;
10410;SDS011;5251;52.112;8.606;2023-07-02T10:55:09;8.77;;;6.75;;
10410;SDS011;5251;52.112;8.606;2023-07-02T10:57:34;8.63;;;6.93;;
10410;SDS011;5251;52.112;8.606;2023-07-02T11:00:06;7.88;;;6.90;;
10410;SDS011;5251;52.112;8.606;2023-07-02T11:02:33;9.30;;;6.88;;
10410;SDS011;5251;52.112;8.606;2023-07-02T11:05:03;7.15;;;6.43;;
10410;SDS011;5251;52.112;8.606;2023-07-02T11:07:32;11.05;;;7.47;;
10410;SDS011;5251;52.112;8.606;2023-07-02T11:09:58;7.00;;;6.10;;
10410;SDS011;5251;52.112;8.606;2023-07-02T11:12:27;8.88;;;6.40;;
10410;SDS011;5251;52.112;8.606;2023-07-02T11:15:15;9.52;;;7.60;;
10410;SDS011;5251;52.112;8.606;2023-07-02T11:17:44;7.90;;;7.03;;
10410;SDS011;5251;52.112;8.606;2023-07-02T11:20:10;8.73;;;6.78;;
10410;SDS011;5251;52.112;8.606;2023-07-02T11:22:38;10.23;;;7.07;;
10410;SDS011;5251;52.112;8.606;2023-07-02T11:25:11;9.52;;;8.60;;
10410;SDS011;5251;52.112;8.606;2023-07-02T11:27:45;9.40;;;7.95;;
10410;SDS011;5251;52.112;8.606;2023-07-02T11:30:11;8.93;;;7.28;;
10410;SDS011;5251;52.112;8.606;2023-07-02T11:32:53;9.20;;;7.35;;
10410;SDS011;5251;52.112;8.606;2023-07-02T11:35:20;8.57;;;7.22;;
10410;SDS011;5251;52.112;8.606;2023-07-02T11:37:46;8.13;;;7.32;;
10410;SDS011;5251;52.112;8.606;2023-07-02T11:40:14;9.20;;;8.27;;
10410;SDS011;5251;52.112;8.606;2023-07-02T11:42:42;9.07;;;8.18;;
10410;SDS011;5251;52.112;8.606;2023-07-02T11:45:08;10.10;;;8.88;;
10410;SDS011;5251;52.112;8.606;2023-07-02T11:47:35;9.35;;;8.40;;
10410;SDS011;5251;52.112;8.606;2023-07-02T11:50:00;10.20;;;8.57;;
10410;SDS011;5251;52.112;8.606;2023-07-02T11:52:26;9.63;;;8.60;;
10410;SDS011;5251;52.112;8.606;2023-07-02T11:54:51;9.30;;;8.13;;
10410;SDS011;5251;52.112;8.606;2023-07-02T11:57:17;10.88;;;8.43;;
10410;SDS011;5251;52.112;8.606;2023-07-02T11:59:43;9.63;;;7.68;;
10410;SDS011;5251;52.112;8.606;2023-07-02T12:02:08;8.50;;;7.70;;
10410;SDS011;5251;52.112;8.606;2023-07-02T12:04:34;9.05;;;8.23;;
10410;SDS011;5251;52.112;8.606;2023-07-02T12:07:00;8.75;;;7.95;;
10410;SDS011;5251;52.112;8.606;2023-07-02T12:09:28;9.75;;;8.43;;
10410;SDS011;5251;52.112;8.606;2023-07-02T12:11:54;9.75;;;8.88;;
10410;SDS011;5251;52.112;8.606;2023-07-02T12:14:19;10.23;;;8.18;;
10410;SDS011;5251;52.112;8.606;2023-07-02T12:16:45;8.98;;;8.18;;
10410;SDS011;5251;52.112;8.606;2023-07-02T12:19:10;11.50;;;8.10;;
10410;SDS011;5251;52.112;8.606;2023-07-02T12:21:36;10.18;;;9.13;;
10410;SDS011;5251;52.112;8.606;2023-07-02T12:24:02;11.02;;;8.88;;
10410;SDS011;5251;52.112;8.606;2023-07-02T12:26:28;10.02;;;8.93;;
10410;SDS011;5251;52.112;8.606;2023-07-02T12:28:54;9.90;;;8.98;;
10410;SDS011;5251;52.112;8.606;2023-07-02T12:31:19;9.07;;;8.18;;
10410;SDS011;5251;52.112;8.606;2023-07-02T12:33:45;14.40;;;8.50;;
10410;SDS011;5251;52.112;8.606;2023-07-02T12:36:10;9.60;;;8.70;;
10410;SDS011;5251;52.112;8.606;2023-07-02T12:38:37;9.27;;;8.38;;
10410;SDS011;5251;52.112;8.606;2023-07-02T12:41:02;9.43;;;8.55;;
10410;SDS011;5251;52.112;8.606;2023-07-02T12:43:28;10.32;;;9.60;;
10410;SDS011;5251;52.112;8.606;2023-07-02T12:45:54;11.45;;;10.52;;
10410;SDS011;5251;52.112;8.606;2023-07-02T12:48:19;11.75;;;10.65;;
10410;SDS011;5251;52.112;8.606;2023-07-02T12:50:54;9.80;;;9.10;;
10410;SDS011;5251;52.112;8.606;2023-07-02T12:53:21;10.82;;;9.82;;
10410;SDS011;5251;52.112;8.606;2023-07-02T12:55:47;11.48;;;10.60;;
10410;SDS011;5251;52.112;8.606;2023-07-02T12:58:13;11.68;;;10.63;;
10410;SDS011;5251;52.112;8.606;2023-07-02T13:00:38;10.20;;;9.05;;
10410;SDS011;5251;52.112;8.606;2023-07-02T13:03:04;11.15;;;10.05;;
10410;SDS011;5251;52.112;8.606;2023-07-02T13:05:29;10.35;;;9.55;;
10410;SDS011;5251;52.112;8.606;2023-07-02T13:07:55;8.25;;;7.63;;
10410;SDS011;5251;52.112;8.606;2023-07-02T13:10:21;9.82;;;8.82;;
10410;SDS011;5251;52.112;8.606;2023-07-02T13:12:46;8.88;;;8.07;;
10410;SDS011;5251;52.112;8.606;2023-07-02T13:15:12;8.50;;;7.70;;
10410;SDS011;5251;52.112;8.606;2023-07-02T13:17:38;8.82;;;7.95;;
10410;SDS011;5251;52.112;8.606;2023-07-02T13:20:03;18.20;;;8.82;;
10410;SDS011;5251;52.112;8.606;2023-07-02T13:22:30;8.10;;;7.35;;
10410;SDS011;5251;52.112;8.606;2023-07-02T13:24:55;10.02;;;9.02;;
10410;SDS011;5251;52.112;8.606;2023-07-02T13:27:21;9.00;;;8.20;;
10410;SDS011;5251;52.112;8.606;2023-07-02T13:29:46;8.65;;;7.95;;
10410;SDS011;5251;52.112;8.606;2023-07-02T13:32:12;9.57;;;8.32;;
10410;SDS011;5251;52.112;8.606;2023-07-02T13:34:38;9.57;;;7.88;;
10410;SDS011;5251;52.112;8.606;2023-07-02T13:37:04;8.35;;;7.63;;
10410;SDS011;5251;52.112;8.606;2023-07-02T13:39:30;8.27;;;7.63;;
10410;SDS011;5251;52.112;8.606;2023-07-02T13:41:56;8.80;;;7.75;;
10410;SDS011;5251;52.112;8.606;2023-07-02T13:44:21;9.10;;;8.27;;
10410;SDS011;5251;52.112;8.606;2023-07-02T13:46:47;8.15;;;7.35;;
10410;SDS011;5251;52.112;8.606;2023-07-02T13:49:13;8.18;;;6.88;;
10410;SDS011;5251;52.112;8.606;2023-07-02T13:51:39;8.32;;;7.47;;
10410;SDS011;5251;52.112;8.606;2023-07-02T13:54:04;8.05;;;7.25;;
10410;SDS011;5251;52.112;8.606;2023-07-02T13:56:30;7.70;;;6.88;;
10410;SDS011;5251;52.112;8.606;2023-07-02T14:01:21;8.40;;;6.82;;
10410;SDS011;5251;52.112;8.606;2023-07-02T14:03:48;7.85;;;7.03;;
10410;SDS011;5251;52.112;8.606;2023-07-02T14:06:13;7.90;;;6.80;;
10410;SDS011;5251;52.112;8.606;2023-07-02T14:08:40;7.63;;;6.82;;
10410;SDS011;5251;52.112;8.606;2023-07-02T14:11:06;7.72;;;7.00;;
10410;SDS011;5251;52.112;8.606;2023-07-02T14:13:32;7.68;;;6.80;;
10410;SDS011;5251;52.112;8.606;2023-07-02T14:15:58;7.75;;;7.05;;
10410;SDS011;5251;52.112;8.606;2023-07-02T14:18:24;9.30;;;7.65;;
10410;SDS011;5251;52.112;8.606;2023-07-02T14:20:50;9.27;;;6.68;;
10410;SDS011;5251;52.112;8.606;2023-07-02T14:23:16;8.65;;;7.57;;
10410;SDS011;5251;52.112;8.606;2023-07-02T14:25:41;7.32;;;6.72;;
10410;SDS011;5251;52.112;8.606;2023-07-02T14:28:07;8.60;;;7.40;;
10410;SDS011;5251;52.112;8.606;2023-07-02T14:30:33;8.43;;;7.10;;
10410;SDS011;5251;52.112;8.606;2023-07-02T14:32:59;8.63;;;6.88;;
10410;SDS011;5251;52.112;8.606;2023-07-02T14:35:25;9.68;;;6.53;;
10410;SDS011;5251;52.112;8.606;2023-07-02T14:37:53;8.52;;;6.75;;
10410;SDS011;5251;52.112;8.606;2023-07-02T14:40:18;7.45;;;6.68;;
10410;SDS011;5251;52.112;8.606;2023-07-02T14:42:44;7.97;;;6.95;;
10410;SDS011;5251;52.112;8.606;2023-07-02T14:45:10;9.02;;;7.43;;
10410;SDS011;5251;52.112;8.606;2023-07-02T14:47:36;7.95;;;7.05;;
10410;SDS011;5251;52.112;8.606;2023-07-02T14:50:02;8.35;;;6.88;;
10410;SDS011;5251;52.112;8.606;2023-07-02T14:52:29;8.45;;;6.78;;
10410;SDS011;5251;52.112;8.606;2023-07-02T14:54:54;8.13;;;7.38;;
10410;SDS011;5251;52.112;8.606;2023-07-02T14:57:21;7.35;;;6.70;;